createdAt,value
2017-08-29T00:02:45.885Z,57.73
2017-08-29T00:07:47.827Z,58.06
2017-08-29T00:12:50.188Z,58.39
2017-08-29T00:17:52.144Z,58.90
2017-08-29T00:22:54.964Z,59.05
2017-08-29T00:27:57.548Z,59.25
2017-08-29T00:32:59.496Z,59.58
2017-08-29T00:38:02.210Z,59.62
2017-08-29T00:43:04.621Z,59.72
2017-08-29T00:48:07.247Z,60.00
2017-08-29T00:53:09.605Z,59.96
2017-08-29T00:58:11.691Z,60.14
2017-08-29T01:03:14.345Z,60.50
2017-08-29T01:08:16.863Z,60.67
2017-08-29T01:13:19.280Z,60.67
2017-08-29T01:18:22.819Z,60.86
2017-08-29T01:23:25.960Z,61.03
2017-08-29T01:28:28.815Z,61.27
2017-08-29T01:33:30.862Z,61.40
2017-08-29T01:38:33.654Z,61.52
2017-08-29T01:43:35.678Z,61.32
2017-08-29T01:48:38.499Z,61.24
2017-08-29T01:53:42.399Z,61.51
2017-08-29T01:58:45.122Z,61.63
2017-08-29T02:03:47.219Z,61.94
2017-08-29T02:08:49.883Z,62.14
2017-08-29T02:13:52.609Z,61.97
2017-08-29T02:18:54.625Z,61.94
2017-08-29T02:23:57.380Z,62.41
2017-08-29T02:28:59.298Z,62.60
2017-08-29T02:34:01.891Z,62.77
2017-08-29T02:39:03.904Z,63.71
2017-08-29T02:44:06.439Z,63.02
2017-08-29T02:49:08.888Z,63.33
2017-08-29T02:54:11.997Z,63.41
2017-08-29T02:59:13.959Z,63.80
2017-08-29T03:04:16.081Z,63.51
2017-08-29T03:09:18.458Z,63.65
2017-08-29T03:14:21.143Z,63.37
2017-08-29T03:19:23.714Z,63.22
2017-08-29T03:24:26.376Z,63.12
2017-08-29T03:29:28.669Z,63.47
2017-08-29T03:34:31.490Z,63.92
2017-08-29T03:39:33.833Z,64.52
2017-08-29T03:44:36.514Z,65.08
2017-08-29T03:49:39.159Z,64.38
2017-08-29T03:54:43.974Z,64.71
2017-08-29T03:59:49.360Z,64.45
2017-08-29T04:04:52.333Z,64.12
2017-08-29T04:09:54.490Z,64.06
2017-08-29T04:14:57.243Z,64.00
2017-08-29T04:20:00.041Z,63.96
2017-08-29T04:25:03.414Z,64.06
2017-08-29T04:30:05.857Z,64.00
2017-08-29T04:35:08.453Z,64.17
2017-08-29T04:40:11.152Z,64.04
2017-08-29T04:45:13.783Z,64.08
2017-08-29T04:50:16.267Z,64.40
2017-08-29T04:55:18.303Z,64.87
2017-08-29T05:00:20.371Z,64.77
2017-08-29T05:05:22.817Z,63.99
2017-08-29T05:10:28.932Z,63.83
2017-08-29T05:15:31.466Z,63.55
2017-08-29T05:20:33.665Z,63.39
2017-08-29T05:25:36.041Z,63.22
2017-08-29T05:30:37.976Z,63.08
2017-08-29T05:35:40.038Z,63.01
2017-08-29T05:40:42.122Z,62.54
2017-08-29T05:45:44.149Z,61.37
2017-08-29T05:50:46.642Z,60.22
2017-08-29T05:55:48.845Z,59.40
2017-08-29T06:00:51.018Z,58.62
2017-08-29T06:05:53.109Z,58.11
2017-08-29T06:10:55.264Z,58.06
2017-08-29T06:15:57.405Z,58.04
2017-08-29T06:20:59.929Z,58.07
2017-08-29T06:26:02.005Z,57.97
2017-08-29T06:31:12.407Z,58.03
2017-08-29T06:36:15.642Z,57.90
2017-08-29T06:41:18.856Z,57.78
2017-08-29T06:46:21.065Z,57.27
2017-08-29T06:51:23.419Z,56.93
2017-08-29T06:56:26.527Z,56.87
2017-08-29T07:01:30.588Z,56.38
2017-08-29T07:06:35.268Z,55.57
2017-08-29T07:11:43.373Z,55.04
2017-08-29T07:16:48.151Z,54.15
2017-08-29T07:21:50.934Z,53.80
2017-08-29T07:26:53.233Z,53.56
2017-08-29T07:32:01.385Z,52.67
2017-08-29T07:37:03.557Z,52.24
2017-08-29T07:42:06.693Z,52.25
2017-08-29T07:47:09.892Z,51.69
2017-08-29T07:52:12.755Z,51.48
2017-08-29T07:57:21.932Z,51.45
2017-08-29T08:02:29.770Z,51.01
2017-08-29T08:07:37.881Z,50.79
2017-08-29T08:12:46.449Z,50.72
2017-08-29T08:17:49.308Z,50.39
2017-08-29T08:22:52.798Z,49.74
2017-08-29T08:28:02.364Z,49.79
2017-08-29T08:33:04.776Z,49.43
2017-08-29T08:38:07.313Z,48.63
2017-08-29T08:43:10.556Z,48.31
2017-08-29T08:48:12.523Z,47.44
2017-08-29T08:53:14.541Z,46.96
2017-08-29T08:58:16.516Z,46.87
2017-08-29T09:03:18.509Z,46.66
2017-08-29T09:08:20.485Z,46.29
2017-08-29T09:13:22.416Z,46.04
2017-08-29T09:18:24.348Z,45.98
2017-08-29T09:23:26.332Z,45.32
2017-08-29T09:28:28.253Z,45.14
2017-08-29T09:33:30.265Z,45.07
2017-08-29T09:38:32.296Z,44.76
2017-08-29T09:43:35.012Z,44.56
2017-08-29T09:48:37.228Z,44.53
2017-08-29T09:53:39.230Z,44.81
2017-08-29T09:58:41.255Z,44.56
2017-08-29T10:03:43.260Z,44.36
2017-08-29T10:08:45.627Z,44.31
2017-08-29T10:13:47.651Z,44.15
2017-08-29T10:18:49.634Z,44.48
2017-08-29T10:23:51.623Z,44.27
2017-08-29T10:28:53.574Z,44.04
2017-08-29T10:33:55.531Z,43.51
2017-08-29T10:38:57.577Z,43.35
2017-08-29T10:43:59.542Z,43.22
2017-08-29T10:49:01.499Z,43.27
2017-08-29T10:54:03.793Z,43.12
2017-08-29T10:59:06.023Z,43.07
2017-08-29T11:04:08.236Z,42.71
2017-08-29T11:09:10.423Z,42.37
2017-08-29T11:14:12.387Z,42.91
2017-08-29T11:19:16.464Z,41.97
2017-08-29T11:24:21.783Z,42.02
2017-08-29T11:29:28.938Z,41.85
2017-08-29T11:34:31.256Z,41.92
2017-08-29T11:39:33.612Z,42.13
2017-08-29T11:44:35.923Z,41.38
2017-08-29T11:49:37.952Z,41.32
2017-08-29T11:54:40.052Z,41.47
2017-08-29T11:59:42.151Z,41.16
2017-08-29T12:04:44.537Z,41.05
2017-08-29T12:09:46.511Z,41.17
2017-08-29T12:14:48.418Z,40.94
2017-08-29T12:19:50.405Z,39.97
2017-08-29T12:24:52.393Z,39.18
2017-08-29T12:29:54.362Z,39.45
2017-08-29T12:34:56.344Z,39.55
2017-08-29T12:39:58.320Z,38.13
2017-08-29T12:45:00.316Z,37.13
2017-08-29T12:50:02.273Z,38.33
2017-08-29T12:55:04.278Z,37.88
2017-08-29T13:00:06.312Z,37.26
2017-08-29T13:05:08.315Z,36.31
2017-08-29T13:10:10.255Z,37.27
2017-08-29T13:15:12.241Z,36.72
2017-08-29T13:20:14.226Z,36.68
2017-08-29T13:25:16.896Z,36.91
2017-08-29T13:30:18.891Z,36.64
2017-08-29T13:35:21.019Z,35.36
2017-08-29T13:40:23.367Z,35.41
2017-08-29T13:45:25.779Z,35.00
2017-08-29T13:50:27.770Z,34.79
2017-08-29T13:55:33.887Z,35.20
2017-08-29T14:00:35.932Z,34.91
2017-08-29T14:05:38.270Z,34.92
2017-08-29T14:10:41.129Z,33.43
2017-08-29T14:15:43.091Z,34.15
2017-08-29T14:20:45.070Z,33.21
2017-08-29T14:25:47.025Z,33.34
2017-08-29T14:30:48.971Z,31.85
2017-08-29T14:35:50.996Z,31.22
2017-08-29T14:40:52.935Z,31.29
2017-08-29T14:45:54.877Z,31.09
2017-08-29T14:50:56.927Z,30.72
2017-08-29T14:55:59.026Z,30.92
2017-08-29T15:01:01.079Z,31.54
2017-08-29T15:06:03.079Z,31.70
2017-08-29T15:11:05.121Z,31.50
2017-08-29T15:16:07.095Z,30.84
2017-08-29T15:21:09.075Z,30.26
2017-08-29T15:26:11.344Z,29.91
2017-08-29T15:31:13.326Z,30.63
2017-08-29T15:36:15.372Z,31.00
2017-08-29T15:41:17.685Z,31.11
2017-08-29T15:46:19.672Z,31.63
2017-08-29T15:51:21.855Z,32.04
2017-08-29T15:56:23.798Z,32.02
2017-08-29T16:01:25.743Z,32.32
2017-08-29T16:06:27.969Z,32.04
2017-08-29T16:11:30.013Z,32.04
2017-08-29T16:16:32.100Z,32.14
2017-08-29T16:21:34.581Z,32.30
2017-08-29T16:26:36.898Z,32.61
2017-08-29T16:31:39.249Z,33.25
2017-08-29T16:36:41.175Z,34.01
2017-08-29T16:41:43.230Z,34.17
2017-08-29T16:46:45.304Z,34.81
2017-08-29T16:51:47.250Z,35.31
2017-08-29T16:56:51.343Z,35.43
2017-08-29T17:01:53.311Z,35.81
2017-08-29T17:06:55.303Z,36.31
2017-08-29T17:11:57.292Z,36.55
2017-08-29T17:16:59.265Z,36.83
2017-08-29T17:22:01.601Z,37.38
2017-08-29T17:27:04.028Z,38.42
2017-08-29T17:32:05.972Z,39.51
2017-08-29T17:37:10.043Z,39.99
2017-08-29T17:42:12.198Z,40.46
2017-08-29T17:47:14.397Z,42.69
2017-08-29T17:52:16.333Z,43.87
2017-08-29T17:57:18.523Z,44.50
2017-08-29T18:02:20.948Z,45.82
2017-08-29T18:07:23.539Z,46.92
2017-08-29T18:12:25.843Z,47.57
2017-08-29T18:17:28.118Z,48.14
2017-08-29T18:22:30.477Z,48.69
2017-08-29T18:27:36.116Z,49.38
2017-08-29T18:32:38.508Z,49.41
2017-08-29T18:37:40.835Z,49.40
2017-08-29T18:42:43.348Z,50.18
2017-08-29T18:47:45.456Z,50.61
2017-08-29T18:52:47.693Z,51.20
2017-08-29T18:57:49.710Z,52.05
2017-08-29T19:02:51.705Z,52.30
2017-08-29T19:07:54.928Z,52.41
2017-08-29T19:12:58.010Z,52.84
2017-08-29T19:18:01.368Z,53.40
2017-08-29T19:23:04.669Z,54.04
2017-08-29T19:28:07.912Z,54.78
2017-08-29T19:33:11.036Z,55.07
2017-08-29T19:38:14.256Z,55.35
2017-08-29T19:43:17.494Z,55.46
2017-08-29T19:48:21.619Z,56.30
2017-08-29T19:53:24.932Z,56.32
2017-08-29T19:58:35.758Z,56.47
2017-08-29T20:03:37.931Z,56.80
2017-08-29T20:08:40.431Z,57.10
2017-08-29T20:13:42.550Z,57.41
2017-08-29T20:18:45.198Z,57.63
2017-08-29T20:23:47.275Z,57.71
2017-08-29T20:28:49.775Z,58.07
2017-08-29T20:33:51.840Z,58.14
2017-08-29T20:38:55.837Z,58.42
2017-08-29T20:43:58.024Z,58.77
2017-08-29T20:49:01.876Z,58.97
2017-08-29T20:54:04.264Z,59.47
2017-08-29T20:59:06.386Z,59.69
2017-08-29T21:04:08.322Z,59.67
2017-08-29T21:09:10.254Z,60.03
2017-08-29T21:14:12.202Z,60.02
2017-08-29T21:19:14.280Z,60.26
2017-08-29T21:24:16.329Z,60.60
2017-08-29T21:29:18.323Z,61.04
2017-08-29T21:34:20.326Z,60.96
2017-08-29T21:39:22.251Z,61.44
2017-08-29T21:44:24.163Z,61.65
2017-08-29T21:49:26.081Z,61.78
2017-08-29T21:54:28.068Z,62.07
2017-08-29T21:59:30.048Z,62.22
2017-08-29T22:04:32.066Z,62.53
2017-08-29T22:09:34.217Z,62.96
2017-08-29T22:14:36.594Z,63.17
2017-08-29T22:19:38.595Z,63.31
2017-08-29T22:24:40.573Z,63.19
2017-08-29T22:29:44.142Z,63.11
2017-08-29T22:34:46.143Z,63.02
2017-08-29T22:39:48.085Z,63.21
2017-08-29T22:44:50.185Z,63.05
2017-08-29T22:49:52.178Z,63.41
2017-08-29T22:54:54.704Z,63.41
2017-08-29T22:59:57.322Z,63.73
2017-08-29T23:04:59.733Z,63.87
2017-08-29T23:10:02.413Z,64.16
2017-08-29T23:15:05.190Z,64.09
2017-08-29T23:20:07.749Z,63.74
2017-08-29T23:25:09.686Z,63.64
2017-08-29T23:30:11.641Z,63.90
2017-08-29T23:35:13.569Z,64.17
2017-08-29T23:40:17.092Z,63.81
2017-08-29T23:45:19.676Z,64.04
2017-08-29T23:50:23.483Z,64.04
2017-08-29T23:55:26.169Z,64.06
